sensor_id;sensor_type;location;lat;lon;timestamp;temperature;humidity
10030;DHT22;5055;52.054;8.524;2023-05-31T00:00:21;10.30;97.00
10030;DHT22;5055;52.054;8.524;2023-05-31T00:02:51;10.30;97.00
10030;DHT22;5055;52.054;8.524;2023-05-31T00:05:23;10.30;97.00
10030;DHT22;5055;52.054;8.524;2023-05-31T00:07:51;10.30;97.00
10030;DHT22;5055;52.054;8.524;2023-05-31T00:10:20;10.20;97.00
10030;DHT22;5055;52.054;8.524;2023-05-31T00:12:48;10.20;97.00
10030;DHT22;5055;52.054;8.524;2023-05-31T00:15:17;10.20;97.00
10030;DHT22;5055;52.054;8.524;2023-05-31T00:17:48;10.20;97.00
10030;DHT22;5055;52.054;8.524;2023-05-31T00:20:20;10.10;97.00
10030;DHT22;5055;52.054;8.524;2023-05-31T00:22:48;10.10;97.00
10030;DHT22;5055;52.054;8.524;2023-05-31T00:25:17;10.10;97.00
10030;DHT22;5055;52.054;8.524;2023-05-31T00:27:45;10.00;97.00
10030;DHT22;5055;52.054;8.524;2023-05-31T00:30:14;10.00;97.00
10030;DHT22;5055;52.054;8.524;2023-05-31T00:32:42;10.00;97.00
10030;DHT22;5055;52.054;8.524;2023-05-31T00:35:11;9.90;97.00
10030;DHT22;5055;52.054;8.524;2023-05-31T00:37:41;9.90;97.00
10030;DHT22;5055;52.054;8.524;2023-05-31T00:40:10;9.80;97.00
10030;DHT22;5055;52.054;8.524;2023-05-31T00:42:38;9.80;97.00
10030;DHT22;5055;52.054;8.524;2023-05-31T00:45:07;9.70;97.00
10030;DHT22;5055;52.054;8.524;2023-05-31T00:47:35;9.70;97.00
10030;DHT22;5055;52.054;8.524;2023-05-31T00:50:06;9.70;97.00
10030;DHT22;5055;52.054;8.524;2023-05-31T00:52:35;9.70;97.00
10030;DHT22;5055;52.054;8.524;2023-05-31T00:55:06;9.70;97.00
10030;DHT22;5055;52.054;8.524;2023-05-31T00:57:36;9.70;97.00
10030;DHT22;5055;52.054;8.524;2023-05-31T01:00:06;9.60;97.00
10030;DHT22;5055;52.054;8.524;2023-05-31T01:02:37;9.60;97.00
10030;DHT22;5055;52.054;8.524;2023-05-31T01:05:08;9.50;97.00
10030;DHT22;5055;52.054;8.524;2023-05-31T01:07:37;9.50;97.00
10030;DHT22;5055;52.054;8.524;2023-05-31T01:10:08;9.50;97.00
10030;DHT22;5055;52.054;8.524;2023-05-31T01:12:44;9.50;97.00
10030;DHT22;5055;52.054;8.524;2023-05-31T01:15:19;9.40;97.00
10030;DHT22;5055;52.054;8.524;2023-05-31T01:17:53;9.40;97.00
10030;DHT22;5055;52.054;8.524;2023-05-31T01:20:30;9.40;97.00
10030;DHT22;5055;52.054;8.524;2023-05-31T01:23:15;9.40;97.00
10030;DHT22;5055;52.054;8.524;2023-05-31T01:28:49;9.40;97.00
10030;DHT22;5055;52.054;8.524;2023-05-31T01:31:20;9.30;97.00
10030;DHT22;5055;52.054;8.524;2023-05-31T01:33:49;9.30;97.00
10030;DHT22;5055;52.054;8.524;2023-05-31T01:36:18;9.30;97.00
10030;DHT22;5055;52.054;8.524;2023-05-31T01:38:46;9.20;97.00
10030;DHT22;5055;52.054;8.524;2023-05-31T01:41:15;9.20;97.00
10030;DHT22;5055;52.054;8.524;2023-05-31T01:43:46;9.10;97.00
10030;DHT22;5055;52.054;8.524;2023-05-31T01:46:17;9.10;97.00
10030;DHT22;5055;52.054;8.524;2023-05-31T01:48:48;9.10;97.00
10030;DHT22;5055;52.054;8.524;2023-05-31T01:51:17;9.10;97.00
10030;DHT22;5055;52.054;8.524;2023-05-31T01:53:45;9.00;97.00
10030;DHT22;5055;52.054;8.524;2023-05-31T01:56:16;9.00;97.00
10030;DHT22;5055;52.054;8.524;2023-05-31T01:58:49;9.00;97.00
10030;DHT22;5055;52.054;8.524;2023-05-31T02:01:19;8.90;97.00
10030;DHT22;5055;52.054;8.524;2023-05-31T02:03:51;8.90;97.00
10030;DHT22;5055;52.054;8.524;2023-05-31T02:06:20;8.90;97.00
10030;DHT22;5055;52.054;8.524;2023-05-31T02:08:54;8.90;97.00
10030;DHT22;5055;52.054;8.524;2023-05-31T02:11:23;8.90;97.00
10030;DHT22;5055;52.054;8.524;2023-05-31T02:13:54;8.90;97.00
10030;DHT22;5055;52.054;8.524;2023-05-31T02:16:22;8.90;97.00
10030;DHT22;5055;52.054;8.524;2023-05-31T02:18:51;8.90;97.00
10030;DHT22;5055;52.054;8.524;2023-05-31T02:21:19;8.90;97.00
10030;DHT22;5055;52.054;8.524;2023-05-31T02:23:48;8.90;97.00
10030;DHT22;5055;52.054;8.524;2023-05-31T02:26:17;8.80;97.00
10030;DHT22;5055;52.054;8.524;2023-05-31T02:28:45;8.80;97.00
10030;DHT22;5055;52.054;8.524;2023-05-31T02:31:15;8.80;97.00
10030;DHT22;5055;52.054;8.524;2023-05-31T02:33:43;8.80;97.00
10030;DHT22;5055;52.054;8.524;2023-05-31T02:36:12;8.80;97.00
10030;DHT22;5055;52.054;8.524;2023-05-31T02:38:41;8.70;97.00
10030;DHT22;5055;52.054;8.524;2023-05-31T02:41:09;8.70;97.00
10030;DHT22;5055;52.054;8.524;2023-05-31T02:43:37;8.60;97.00
10030;DHT22;5055;52.054;8.524;2023-05-31T02:46:06;8.60;97.00
10030;DHT22;5055;52.054;8.524;2023-05-31T02:48:36;8.60;97.00
10030;DHT22;5055;52.054;8.524;2023-05-31T02:51:04;8.50;97.00
10030;DHT22;5055;52.054;8.524;2023-05-31T02:53:32;8.50;97.00
10030;DHT22;5055;52.054;8.524;2023-05-31T02:56:01;8.50;97.00
10030;DHT22;5055;52.054;8.524;2023-05-31T02:58:29;8.40;97.00
10030;DHT22;5055;52.054;8.524;2023-05-31T03:00:58;8.40;97.00
10030;DHT22;5055;52.054;8.524;2023-05-31T03:03:27;8.40;97.00
10030;DHT22;5055;52.054;8.524;2023-05-31T03:05:57;8.30;97.00
10030;DHT22;5055;52.054;8.524;2023-05-31T03:08:26;8.30;97.00
10030;DHT22;5055;52.054;8.524;2023-05-31T03:10:55;8.20;97.00
10030;DHT22;5055;52.054;8.524;2023-05-31T03:13:23;8.20;97.00
10030;DHT22;5055;52.054;8.524;2023-05-31T03:15:52;8.20;97.00
10030;DHT22;5055;52.054;8.524;2023-05-31T03:18:21;8.30;97.00
10030;DHT22;5055;52.054;8.524;2023-05-31T03:20:50;8.30;97.00
10030;DHT22;5055;52.054;8.524;2023-05-31T03:23:20;8.20;97.00
10030;DHT22;5055;52.054;8.524;2023-05-31T03:25:48;8.20;97.00
10030;DHT22;5055;52.054;8.524;2023-05-31T03:28:17;8.20;97.00
10030;DHT22;5055;52.054;8.524;2023-05-31T03:30:45;8.20;97.00
10030;DHT22;5055;52.054;8.524;2023-05-31T03:33:14;8.20;97.00
10030;DHT22;5055;52.054;8.524;2023-05-31T03:35:42;8.20;97.00
10030;DHT22;5055;52.054;8.524;2023-05-31T03:38:11;8.30;97.00
10030;DHT22;5055;52.054;8.524;2023-05-31T03:40:40;8.40;97.00
10030;DHT22;5055;52.054;8.524;2023-05-31T03:43:09;8.40;97.00
10030;DHT22;5055;52.054;8.524;2023-05-31T03:45:37;8.40;97.00
10030;DHT22;5055;52.054;8.524;2023-05-31T03:48:05;8.40;97.00
10030;DHT22;5055;52.054;8.524;2023-05-31T03:50:34;8.40;97.00
10030;DHT22;5055;52.054;8.524;2023-05-31T03:53:03;8.40;97.00
10030;DHT22;5055;52.054;8.524;2023-05-31T03:55:32;8.50;97.00
10030;DHT22;5055;52.054;8.524;2023-05-31T03:58:05;8.50;97.00
10030;DHT22;5055;52.054;8.524;2023-05-31T04:00:33;8.50;97.00
10030;DHT22;5055;52.054;8.524;2023-05-31T04:03:03;8.60;97.00
10030;DHT22;5055;52.054;8.524;2023-05-31T04:05:32;8.60;97.00
10030;DHT22;5055;52.054;8.524;2023-05-31T04:08:00;8.70;97.00
10030;DHT22;5055;52.054;8.524;2023-05-31T04:10:29;8.70;97.00
10030;DHT22;5055;52.054;8.524;2023-05-31T04:12:57;8.80;97.00
10030;DHT22;5055;52.054;8.524;2023-05-31T04:15:27;8.80;97.00
10030;DHT22;5055;52.054;8.524;2023-05-31T04:17:56;8.90;97.00
10030;DHT22;5055;52.054;8.524;2023-05-31T04:20:24;9.00;97.00
10030;DHT22;5055;52.054;8.524;2023-05-31T04:22:53;9.00;97.00
10030;DHT22;5055;52.054;8.524;2023-05-31T04:25:22;9.10;97.00
10030;DHT22;5055;52.054;8.524;2023-05-31T04:27:50;9.20;97.00
10030;DHT22;5055;52.054;8.524;2023-05-31T04:30:19;9.30;97.00
10030;DHT22;5055;52.054;8.524;2023-05-31T04:32:49;9.40;97.00
10030;DHT22;5055;52.054;8.524;2023-05-31T04:35:18;9.50;97.00
10030;DHT22;5055;52.054;8.524;2023-05-31T04:37:47;9.60;97.00
10030;DHT22;5055;52.054;8.524;2023-05-31T04:40:19;9.70;97.00
10030;DHT22;5055;52.054;8.524;2023-05-31T04:42:49;9.80;97.00
10030;DHT22;5055;52.054;8.524;2023-05-31T04:45:17;9.90;97.00
10030;DHT22;5055;52.054;8.524;2023-05-31T04:47:45;10.00;97.00
10030;DHT22;5055;52.054;8.524;2023-05-31T04:50:18;10.10;97.00
10030;DHT22;5055;52.054;8.524;2023-05-31T04:52:47;10.20;97.00
10030;DHT22;5055;52.054;8.524;2023-05-31T04:55:17;10.30;97.00
10030;DHT22;5055;52.054;8.524;2023-05-31T04:57:46;10.50;97.00
10030;DHT22;5055;52.054;8.524;2023-05-31T05:00:15;10.60;97.00
10030;DHT22;5055;52.054;8.524;2023-05-31T05:02:43;10.80;97.00
10030;DHT22;5055;52.054;8.524;2023-05-31T05:05:12;11.00;97.00
10030;DHT22;5055;52.054;8.524;2023-05-31T05:07:44;11.20;97.00
10030;DHT22;5055;52.054;8.524;2023-05-31T05:10:12;11.50;97.00
10030;DHT22;5055;52.054;8.524;2023-05-31T05:12:41;11.70;97.00
10030;DHT22;5055;52.054;8.524;2023-05-31T05:15:10;12.00;97.00
10030;DHT22;5055;52.054;8.524;2023-05-31T05:17:38;12.30;97.00
10030;DHT22;5055;52.054;8.524;2023-05-31T05:20:09;12.60;97.00
10030;DHT22;5055;52.054;8.524;2023-05-31T05:22:38;12.80;97.00
10030;DHT22;5055;52.054;8.524;2023-05-31T05:25:09;13.10;97.00
10030;DHT22;5055;52.054;8.524;2023-05-31T05:27:38;13.40;97.00
10030;DHT22;5055;52.054;8.524;2023-05-31T05:30:07;13.60;97.00
10030;DHT22;5055;52.054;8.524;2023-05-31T05:32:36;13.80;97.00
10030;DHT22;5055;52.054;8.524;2023-05-31T05:35:05;14.10;97.00
10030;DHT22;5055;52.054;8.524;2023-05-31T05:37:33;14.30;97.00
10030;DHT22;5055;52.054;8.524;2023-05-31T05:40:02;14.50;97.00
10030;DHT22;5055;52.054;8.524;2023-05-31T05:42:35;14.70;97.00
10030;DHT22;5055;52.054;8.524;2023-05-31T05:45:05;14.90;97.00
10030;DHT22;5055;52.054;8.524;2023-05-31T05:47:34;15.10;97.00
10030;DHT22;5055;52.054;8.524;2023-05-31T05:50:04;15.30;97.00
10030;DHT22;5055;52.054;8.524;2023-05-31T05:52:33;15.50;97.00
10030;DHT22;5055;52.054;8.524;2023-05-31T05:55:02;15.60;97.00
10030;DHT22;5055;52.054;8.524;2023-05-31T05:57:31;15.80;97.00
10030;DHT22;5055;52.054;8.524;2023-05-31T06:00:01;16.00;97.00
10030;DHT22;5055;52.054;8.524;2023-05-31T06:02:34;16.10;97.00
10030;DHT22;5055;52.054;8.524;2023-05-31T06:05:03;16.30;97.00
10030;DHT22;5055;52.054;8.524;2023-05-31T06:07:31;16.40;97.00
10030;DHT22;5055;52.054;8.524;2023-05-31T06:10:00;16.60;97.00
10030;DHT22;5055;52.054;8.524;2023-05-31T06:12:29;16.90;97.00
10030;DHT22;5055;52.054;8.524;2023-05-31T06:14:58;17.10;97.00
10030;DHT22;5055;52.054;8.524;2023-05-31T06:17:28;17.30;97.00
10030;DHT22;5055;52.054;8.524;2023-05-31T06:19:56;17.60;97.00
10030;DHT22;5055;52.054;8.524;2023-05-31T06:22:24;17.70;97.00
10030;DHT22;5055;52.054;8.524;2023-05-31T06:24:56;18.00;97.00
10030;DHT22;5055;52.054;8.524;2023-05-31T06:27:24;18.20;97.00
10030;DHT22;5055;52.054;8.524;2023-05-31T06:29:53;18.50;97.00
10030;DHT22;5055;52.054;8.524;2023-05-31T06:32:25;18.80;97.00
10030;DHT22;5055;52.054;8.524;2023-05-31T06:34:55;19.00;97.00
10030;DHT22;5055;52.054;8.524;2023-05-31T06:37:23;19.20;97.00
10030;DHT22;5055;52.054;8.524;2023-05-31T06:39:52;19.20;97.00
10030;DHT22;5055;52.054;8.524;2023-05-31T06:42:21;19.30;97.00
10030;DHT22;5055;52.054;8.524;2023-05-31T06:44:58;19.60;97.00
10030;DHT22;5055;52.054;8.524;2023-05-31T06:47:35;19.70;97.00
10030;DHT22;5055;52.054;8.524;2023-05-31T06:50:06;19.80;97.00
10030;DHT22;5055;52.054;8.524;2023-05-31T06:52:34;20.00;97.00
10030;DHT22;5055;52.054;8.524;2023-05-31T06:55:03;20.30;97.00
10030;DHT22;5055;52.054;8.524;2023-05-31T06:57:32;20.20;97.00
10030;DHT22;5055;52.054;8.524;2023-05-31T07:00:00;20.10;97.00
10030;DHT22;5055;52.054;8.524;2023-05-31T07:02:32;20.20;97.00
10030;DHT22;5055;52.054;8.524;2023-05-31T07:05:02;20.40;97.00
10030;DHT22;5055;52.054;8.524;2023-05-31T07:07:41;20.40;97.00
10030;DHT22;5055;52.054;8.524;2023-05-31T07:10:16;20.60;97.00
10030;DHT22;5055;52.054;8.524;2023-05-31T07:12:44;20.50;97.00
10030;DHT22;5055;52.054;8.524;2023-05-31T07:15:16;20.70;97.00
10030;DHT22;5055;52.054;8.524;2023-05-31T07:17:44;20.90;97.00
10030;DHT22;5055;52.054;8.524;2023-05-31T07:20:16;21.10;97.00
10030;DHT22;5055;52.054;8.524;2023-05-31T07:22:46;21.30;97.00
10030;DHT22;5055;52.054;8.524;2023-05-31T07:25:15;21.40;97.00
10030;DHT22;5055;52.054;8.524;2023-05-31T07:27:44;21.50;97.00
10030;DHT22;5055;52.054;8.524;2023-05-31T07:30:12;21.70;97.00
10030;DHT22;5055;52.054;8.524;2023-05-31T07:32:50;21.60;97.00
10030;DHT22;5055;52.054;8.524;2023-05-31T07:35:19;21.90;97.00
10030;DHT22;5055;52.054;8.524;2023-05-31T07:37:55;22.00;97.00
10030;DHT22;5055;52.054;8.524;2023-05-31T07:40:23;22.20;97.00
10030;DHT22;5055;52.054;8.524;2023-05-31T07:42:53;22.50;97.00
10030;DHT22;5055;52.054;8.524;2023-05-31T07:45:22;22.60;97.00
10030;DHT22;5055;52.054;8.524;2023-05-31T07:47:50;22.70;97.00
10030;DHT22;5055;52.054;8.524;2023-05-31T07:50:25;22.80;97.00
10030;DHT22;5055;52.054;8.524;2023-05-31T07:52:55;23.00;97.00
10030;DHT22;5055;52.054;8.524;2023-05-31T07:55:24;23.30;97.00
10030;DHT22;5055;52.054;8.524;2023-05-31T07:57:53;23.30;97.00
10030;DHT22;5055;52.054;8.524;2023-05-31T08:00:23;23.50;97.00
10030;DHT22;5055;52.054;8.524;2023-05-31T08:02:53;23.60;97.00
10030;DHT22;5055;52.054;8.524;2023-05-31T08:05:22;23.60;97.00
10030;DHT22;5055;52.054;8.524;2023-05-31T08:07:51;23.80;97.00
10030;DHT22;5055;52.054;8.524;2023-05-31T08:10:21;24.00;97.00
10030;DHT22;5055;52.054;8.524;2023-05-31T08:12:49;24.10;97.00
10030;DHT22;5055;52.054;8.524;2023-05-31T08:15:18;24.30;97.00
10030;DHT22;5055;52.054;8.524;2023-05-31T08:17:46;24.30;97.00
10030;DHT22;5055;52.054;8.524;2023-05-31T08:20:15;24.60;97.00
10030;DHT22;5055;52.054;8.524;2023-05-31T08:22:44;24.80;97.00
10030;DHT22;5055;52.054;8.524;2023-05-31T08:25:13;25.00;97.00
10030;DHT22;5055;52.054;8.524;2023-05-31T08:27:45;25.10;97.00
10030;DHT22;5055;52.054;8.524;2023-05-31T08:30:14;25.30;97.00
10030;DHT22;5055;52.054;8.524;2023-05-31T08:32:42;25.30;97.00
10030;DHT22;5055;52.054;8.524;2023-05-31T08:35:11;25.50;97.00
10030;DHT22;5055;52.054;8.524;2023-05-31T08:37:39;25.60;97.00
10030;DHT22;5055;52.054;8.524;2023-05-31T08:40:08;25.70;97.00
10030;DHT22;5055;52.054;8.524;2023-05-31T08:42:40;25.40;97.00
10030;DHT22;5055;52.054;8.524;2023-05-31T08:45:12;25.50;97.00
10030;DHT22;5055;52.054;8.524;2023-05-31T08:47:43;25.80;97.00
10030;DHT22;5055;52.054;8.524;2023-05-31T08:50:13;26.00;97.00
10030;DHT22;5055;52.054;8.524;2023-05-31T08:52:45;26.20;97.00
10030;DHT22;5055;52.054;8.524;2023-05-31T08:55:14;26.30;97.00
10030;DHT22;5055;52.054;8.524;2023-05-31T08:57:45;26.50;97.00
10030;DHT22;5055;52.054;8.524;2023-05-31T09:00:16;26.70;97.00
10030;DHT22;5055;52.054;8.524;2023-05-31T09:02:46;26.70;97.00
10030;DHT22;5055;52.054;8.524;2023-05-31T09:05:15;26.60;97.00
10030;DHT22;5055;52.054;8.524;2023-05-31T09:07:43;26.60;97.00
10030;DHT22;5055;52.054;8.524;2023-05-31T09:10:13;27.00;97.00
10030;DHT22;5055;52.054;8.524;2023-05-31T09:12:43;27.00;97.00
10030;DHT22;5055;52.054;8.524;2023-05-31T09:15:13;27.40;97.00
10030;DHT22;5055;52.054;8.524;2023-05-31T09:17:44;27.70;97.00
10030;DHT22;5055;52.054;8.524;2023-05-31T09:20:19;27.70;97.00
10030;DHT22;5055;52.054;8.524;2023-05-31T09:22:48;27.80;97.00
10030;DHT22;5055;52.054;8.524;2023-05-31T09:25:17;27.80;97.00
10030;DHT22;5055;52.054;8.524;2023-05-31T09:27:46;27.80;97.00
10030;DHT22;5055;52.054;8.524;2023-05-31T09:30:15;27.90;97.00
10030;DHT22;5055;52.054;8.524;2023-05-31T09:32:52;27.70;97.00
10030;DHT22;5055;52.054;8.524;2023-05-31T09:35:22;27.60;97.00
10030;DHT22;5055;52.054;8.524;2023-05-31T09:37:54;27.70;97.00
10030;DHT22;5055;52.054;8.524;2023-05-31T09:40:25;27.90;97.00
10030;DHT22;5055;52.054;8.524;2023-05-31T09:42:54;28.30;97.00
10030;DHT22;5055;52.054;8.524;2023-05-31T09:45:23;28.60;97.00
10030;DHT22;5055;52.054;8.524;2023-05-31T09:47:53;28.90;97.00
10030;DHT22;5055;52.054;8.524;2023-05-31T09:50:28;28.90;97.00
10030;DHT22;5055;52.054;8.524;2023-05-31T09:52:57;28.10;97.00
10030;DHT22;5055;52.054;8.524;2023-05-31T09:55:38;27.20;97.00
10030;DHT22;5055;52.054;8.524;2023-05-31T09:58:08;27.30;97.00
10030;DHT22;5055;52.054;8.524;2023-05-31T10:00:44;27.60;97.00
10030;DHT22;5055;52.054;8.524;2023-05-31T10:03:14;27.90;97.00
10030;DHT22;5055;52.054;8.524;2023-05-31T10:05:42;28.00;97.00
10030;DHT22;5055;52.054;8.524;2023-05-31T10:08:11;28.20;97.00
10030;DHT22;5055;52.054;8.524;2023-05-31T10:10:40;28.60;97.00
10030;DHT22;5055;52.054;8.524;2023-05-31T10:13:11;28.80;97.00
10030;DHT22;5055;52.054;8.524;2023-05-31T10:15:41;28.90;97.00
10030;DHT22;5055;52.054;8.524;2023-05-31T10:18:11;28.40;97.00
10030;DHT22;5055;52.054;8.524;2023-05-31T10:20:49;27.90;97.00
10030;DHT22;5055;52.054;8.524;2023-05-31T10:23:22;27.90;97.00
10030;DHT22;5055;52.054;8.524;2023-05-31T10:25:57;28.40;97.00
10030;DHT22;5055;52.054;8.524;2023-05-31T10:28:28;28.50;97.00
10030;DHT22;5055;52.054;8.524;2023-05-31T10:30:59;28.80;97.00
10030;DHT22;5055;52.054;8.524;2023-05-31T10:33:30;28.90;97.00
10030;DHT22;5055;52.054;8.524;2023-05-31T10:36:00;28.90;97.00
10030;DHT22;5055;52.054;8.524;2023-05-31T10:38:34;28.90;97.00
10030;DHT22;5055;52.054;8.524;2023-05-31T10:41:10;28.90;97.00
10030;DHT22;5055;52.054;8.524;2023-05-31T10:43:54;29.10;97.00
10030;DHT22;5055;52.054;8.524;2023-05-31T10:46:26;29.40;97.00
10030;DHT22;5055;52.054;8.524;2023-05-31T10:48:58;29.30;97.00
10030;DHT22;5055;52.054;8.524;2023-05-31T10:51:41;29.10;97.00
10030;DHT22;5055;52.054;8.524;2023-05-31T10:54:18;29.20;97.00
10030;DHT22;5055;52.054;8.524;2023-05-31T10:56:53;29.20;97.00
10030;DHT22;5055;52.054;8.524;2023-05-31T10:59:22;29.30;97.00
10030;DHT22;5055;52.054;8.524;2023-05-31T11:01:51;29.30;97.00
10030;DHT22;5055;52.054;8.524;2023-05-31T11:04:21;29.00;97.00
10030;DHT22;5055;52.054;8.524;2023-05-31T11:07:11;28.90;97.00
10030;DHT22;5055;52.054;8.524;2023-05-31T11:09:56;28.70;97.00
10030;DHT22;5055;52.054;8.524;2023-05-31T11:12:33;28.90;97.00
10030;DHT22;5055;52.054;8.524;2023-05-31T11:15:03;28.50;97.00
10030;DHT22;5055;52.054;8.524;2023-05-31T11:17:39;28.30;97.00
10030;DHT22;5055;52.054;8.524;2023-05-31T11:20:15;28.30;97.00
10030;DHT22;5055;52.054;8.524;2023-05-31T11:22:46;28.50;97.00
10030;DHT22;5055;52.054;8.524;2023-05-31T11:25:19;28.70;97.00
10030;DHT22;5055;52.054;8.524;2023-05-31T11:28:05;28.80;97.00
10030;DHT22;5055;52.054;8.524;2023-05-31T11:30:37;28.30;97.00
10030;DHT22;5055;52.054;8.524;2023-05-31T11:33:16;28.20;97.00
10030;DHT22;5055;52.054;8.524;2023-05-31T11:35:45;28.00;97.00
10030;DHT22;5055;52.054;8.524;2023-05-31T11:38:15;27.70;97.00
10030;DHT22;5055;52.054;8.524;2023-05-31T11:40:44;27.70;97.00
10030;DHT22;5055;52.054;8.524;2023-05-31T11:43:14;28.10;97.00
10030;DHT22;5055;52.054;8.524;2023-05-31T11:45:46;28.40;97.00
10030;DHT22;5055;52.054;8.524;2023-05-31T11:48:35;28.30;97.00
10030;DHT22;5055;52.054;8.524;2023-05-31T11:51:04;28.30;97.00
10030;DHT22;5055;52.054;8.524;2023-05-31T11:53:34;28.50;97.00
10030;DHT22;5055;52.054;8.524;2023-05-31T11:56:03;28.70;97.00
10030;DHT22;5055;52.054;8.524;2023-05-31T11:58:34;29.00;97.00
10030;DHT22;5055;52.054;8.524;2023-05-31T12:01:03;29.20;97.00
10030;DHT22;5055;52.054;8.524;2023-05-31T12:03:32;29.40;97.00
10030;DHT22;5055;52.054;8.524;2023-05-31T12:06:01;29.40;97.00
10030;DHT22;5055;52.054;8.524;2023-05-31T12:08:31;29.20;97.00
10030;DHT22;5055;52.054;8.524;2023-05-31T12:11:04;29.60;97.00
10030;DHT22;5055;52.054;8.524;2023-05-31T12:13:33;29.80;97.00
10030;DHT22;5055;52.054;8.524;2023-05-31T12:16:04;29.80;97.00
10030;DHT22;5055;52.054;8.524;2023-05-31T12:18:33;29.60;97.00
10030;DHT22;5055;52.054;8.524;2023-05-31T12:21:09;29.50;97.00
10030;DHT22;5055;52.054;8.524;2023-05-31T12:23:52;29.80;97.00
10030;DHT22;5055;52.054;8.524;2023-05-31T12:26:22;30.00;97.00
10030;DHT22;5055;52.054;8.524;2023-05-31T12:28:51;30.10;97.00
10030;DHT22;5055;52.054;8.524;2023-05-31T12:31:20;29.90;97.00
10030;DHT22;5055;52.054;8.524;2023-05-31T12:33:58;29.90;97.00
10030;DHT22;5055;52.054;8.524;2023-05-31T12:36:37;30.00;97.00
10030;DHT22;5055;52.054;8.524;2023-05-31T12:39:10;29.90;97.00
10030;DHT22;5055;52.054;8.524;2023-05-31T12:41:43;29.80;97.00
10030;DHT22;5055;52.054;8.524;2023-05-31T12:44:12;29.20;97.00
10030;DHT22;5055;52.054;8.524;2023-05-31T12:46:43;29.30;97.00
10030;DHT22;5055;52.054;8.524;2023-05-31T12:49:14;29.40;97.00
10030;DHT22;5055;52.054;8.524;2023-05-31T12:51:47;29.20;97.00
10030;DHT22;5055;52.054;8.524;2023-05-31T12:54:18;29.10;97.00
10030;DHT22;5055;52.054;8.524;2023-05-31T12:56:48;29.30;97.00
10030;DHT22;5055;52.054;8.524;2023-05-31T12:59:16;29.50;97.00
10030;DHT22;5055;52.054;8.524;2023-05-31T13:01:45;29.60;97.00
10030;DHT22;5055;52.054;8.524;2023-05-31T13:04:13;29.60;97.00
10030;DHT22;5055;52.054;8.524;2023-05-31T13:06:42;29.70;97.00
10030;DHT22;5055;52.054;8.524;2023-05-31T13:09:11;29.60;97.00
10030;DHT22;5055;52.054;8.524;2023-05-31T13:11:40;29.50;97.00
10030;DHT22;5055;52.054;8.524;2023-05-31T13:14:12;29.60;97.00
10030;DHT22;5055;52.054;8.524;2023-05-31T13:16:43;29.30;97.00
10030;DHT22;5055;52.054;8.524;2023-05-31T13:19:11;29.50;97.00
10030;DHT22;5055;52.054;8.524;2023-05-31T13:21:40;29.50;97.00
10030;DHT22;5055;52.054;8.524;2023-05-31T13:24:09;29.70;97.00
10030;DHT22;5055;52.054;8.524;2023-05-31T13:26:38;29.50;97.00
10030;DHT22;5055;52.054;8.524;2023-05-31T13:29:07;29.60;97.00
10030;DHT22;5055;52.054;8.524;2023-05-31T13:31:37;29.70;97.00
10030;DHT22;5055;52.054;8.524;2023-05-31T13:34:05;29.40;97.00
10030;DHT22;5055;52.054;8.524;2023-05-31T13:36:34;29.40;97.00
10030;DHT22;5055;52.054;8.524;2023-05-31T13:39:04;29.50;97.00
10030;DHT22;5055;52.054;8.524;2023-05-31T13:41:32;29.60;97.00
10030;DHT22;5055;52.054;8.524;2023-05-31T13:44:01;29.60;97.00
10030;DHT22;5055;52.054;8.524;2023-05-31T13:46:29;29.90;97.00
10030;DHT22;5055;52.054;8.524;2023-05-31T13:48:59;29.90;97.00
10030;DHT22;5055;52.054;8.524;2023-05-31T13:51:27;29.50;97.00
10030;DHT22;5055;52.054;8.524;2023-05-31T13:53:56;29.60;97.00
10030;DHT22;5055;52.054;8.524;2023-05-31T13:56:24;29.90;97.00
10030;DHT22;5055;52.054;8.524;2023-05-31T13:58:53;30.20;97.00
10030;DHT22;5055;52.054;8.524;2023-05-31T14:01:22;30.30;97.00
10030;DHT22;5055;52.054;8.524;2023-05-31T14:03:51;30.10;97.00
10030;DHT22;5055;52.054;8.524;2023-05-31T14:06:23;29.60;97.00
10030;DHT22;5055;52.054;8.524;2023-05-31T14:08:51;29.50;97.00
10030;DHT22;5055;52.054;8.524;2023-05-31T14:11:20;29.60;97.00
10030;DHT22;5055;52.054;8.524;2023-05-31T14:13:49;29.50;97.00
10030;DHT22;5055;52.054;8.524;2023-05-31T14:16:18;29.70;97.00
10030;DHT22;5055;52.054;8.524;2023-05-31T14:18:49;30.00;97.00
10030;DHT22;5055;52.054;8.524;2023-05-31T14:21:23;30.10;97.00
10030;DHT22;5055;52.054;8.524;2023-05-31T14:23:52;30.10;97.00
10030;DHT22;5055;52.054;8.524;2023-05-31T14:26:20;30.10;97.00
10030;DHT22;5055;52.054;8.524;2023-05-31T14:28:49;30.20;97.00
10030;DHT22;5055;52.054;8.524;2023-05-31T14:31:18;30.20;97.00
10030;DHT22;5055;52.054;8.524;2023-05-31T14:33:46;30.30;97.00
10030;DHT22;5055;52.054;8.524;2023-05-31T14:36:15;30.40;97.00
10030;DHT22;5055;52.054;8.524;2023-05-31T14:38:45;30.20;97.00
10030;DHT22;5055;52.054;8.524;2023-05-31T14:41:14;29.70;97.00
10030;DHT22;5055;52.054;8.524;2023-05-31T14:43:42;29.70;97.00
10030;DHT22;5055;52.054;8.524;2023-05-31T14:46:10;29.80;97.00
10030;DHT22;5055;52.054;8.524;2023-05-31T14:48:40;29.60;97.00
10030;DHT22;5055;52.054;8.524;2023-05-31T14:51:08;29.50;97.00
10030;DHT22;5055;52.054;8.524;2023-05-31T14:53:37;29.50;97.00
10030;DHT22;5055;52.054;8.524;2023-05-31T14:56:07;29.50;97.00
10030;DHT22;5055;52.054;8.524;2023-05-31T14:58:44;29.80;97.00
10030;DHT22;5055;52.054;8.524;2023-05-31T15:01:14;30.00;97.00
10030;DHT22;5055;52.054;8.524;2023-05-31T15:03:44;30.40;97.00
10030;DHT22;5055;52.054;8.524;2023-05-31T15:06:14;30.80;97.00
10030;DHT22;5055;52.054;8.524;2023-05-31T15:08:42;30.50;97.00
10030;DHT22;5055;52.054;8.524;2023-05-31T15:11:12;30.10;97.00
10030;DHT22;5055;52.054;8.524;2023-05-31T15:13:41;29.80;97.00
10030;DHT22;5055;52.054;8.524;2023-05-31T15:16:09;29.50;97.00
10030;DHT22;5055;52.054;8.524;2023-05-31T15:18:37;29.50;97.00
10030;DHT22;5055;52.054;8.524;2023-05-31T15:21:06;29.60;97.00
10030;DHT22;5055;52.054;8.524;2023-05-31T15:23:35;29.80;97.00
10030;DHT22;5055;52.054;8.524;2023-05-31T15:26:03;29.70;97.00
10030;DHT22;5055;52.054;8.524;2023-05-31T15:28:33;29.60;97.00
10030;DHT22;5055;52.054;8.524;2023-05-31T15:31:02;29.50;97.00
10030;DHT22;5055;52.054;8.524;2023-05-31T15:33:35;29.30;97.00
10030;DHT22;5055;52.054;8.524;2023-05-31T15:36:04;29.10;97.00
10030;DHT22;5055;52.054;8.524;2023-05-31T15:38:33;28.90;97.00
10030;DHT22;5055;52.054;8.524;2023-05-31T15:41:02;28.80;97.00
10030;DHT22;5055;52.054;8.524;2023-05-31T15:43:30;28.70;97.00
10030;DHT22;5055;52.054;8.524;2023-05-31T15:46:00;28.60;97.00
10030;DHT22;5055;52.054;8.524;2023-05-31T15:48:29;28.70;97.00
10030;DHT22;5055;52.054;8.524;2023-05-31T15:50:57;28.50;97.00
10030;DHT22;5055;52.054;8.524;2023-05-31T15:53:26;28.20;97.00
10030;DHT22;5055;52.054;8.524;2023-05-31T15:55:55;28.20;97.00
10030;DHT22;5055;52.054;8.524;2023-05-31T15:58:23;27.80;97.00
10030;DHT22;5055;52.054;8.524;2023-05-31T16:00:53;27.70;97.00
10030;DHT22;5055;52.054;8.524;2023-05-31T16:03:24;27.60;97.00
10030;DHT22;5055;52.054;8.524;2023-05-31T16:05:52;27.40;97.00
10030;DHT22;5055;52.054;8.524;2023-05-31T16:08:21;27.30;97.00
10030;DHT22;5055;52.054;8.524;2023-05-31T16:10:50;27.30;97.00